Time;durP1;ratioP1;P1;durP2;ratioP2;P2;SDS_P1;SDS_P2;PMS_P1;PMS_P2;Temp;Humidity;BMP_temperature;BMP_pressure;BME280_temperature;BME280_humidity;BME280_pressure;Samples;Min_cycle;Max_cycle;Signal;HPM_P1;HPM_P2
2020/12/03 00:01:29;;;;;;;2.45;1.00;;;8.40;96.70;;;;;;5120826;27;20043;-76
2020/12/03 00:04:03;;;;;;;0.95;0.50;;;8.30;96.70;;;;;;5098287;27;20035;-77
2020/12/03 00:06:34;;;;;;;1.17;0.80;;;8.40;96.70;;;;;;5141897;27;20044;-77
2020/12/03 00:09:08;;;;;;;1.05;0.70;;;8.30;96.70;;;;;;5117754;27;20058;-77
2020/12/03 00:11:38;;;;;;;1.20;0.70;;;8.30;96.70;;;;;;5113384;27;20043;-77
2020/12/03 00:14:05;;;;;;;1.05;0.80;;;8.40;96.70;;;;;;5133055;27;20031;-78
2020/12/03 00:16:34;;;;;;;0.77;0.68;;;8.40;96.70;;;;;;5141637;27;20041;-76
2020/12/03 00:19:03;;;;;;;0.60;0.50;;;8.30;96.70;;;;;;5119166;27;20571;-77
2020/12/03 00:21:33;;;;;;;1.20;0.68;;;8.40;96.70;;;;;;5115724;27;20031;-77
2020/12/03 00:24:01;;;;;;;1.83;0.57;;;8.30;96.70;;;;;;5138504;27;20034;-77
2020/12/03 00:26:30;;;;;;;1.00;0.70;;;8.40;96.70;;;;;;5121005;27;20050;-77
2020/12/03 00:28:58;;;;;;;1.25;0.70;;;8.40;96.70;;;;;;5104004;27;20224;-77
2020/12/03 00:31:25;;;;;;;1.65;0.80;;;8.40;96.70;;;;;;5123674;27;20127;-77
2020/12/03 00:33:53;;;;;;;1.95;0.65;;;8.40;96.70;;;;;;5136491;27;20059;-77
2020/12/03 00:36:20;;;;;;;1.10;0.80;;;8.40;96.70;;;;;;5121350;27;20074;-76
2020/12/03 00:38:48;;;;;;;1.20;0.55;;;8.40;96.70;;;;;;5099882;27;20046;-77
2020/12/03 00:41:18;;;;;;;1.52;0.52;;;8.40;96.70;;;;;;5140674;27;20026;-77
2020/12/03 00:43:46;;;;;;;2.05;0.50;;;8.40;96.70;;;;;;5104626;27;20530;-76
2020/12/03 00:46:13;;;;;;;0.95;0.57;;;8.30;96.70;;;;;;5118581;27;20500;-77
2020/12/03 00:48:41;;;;;;;1.23;0.50;;;8.30;96.70;;;;;;5123182;27;20052;-77
2020/12/03 00:51:11;;;;;;;0.98;0.60;;;8.30;96.70;;;;;;5122724;27;20063;-77
2020/12/03 00:53:40;;;;;;;1.58;0.88;;;8.20;96.70;;;;;;5103532;27;20054;-77
2020/12/03 00:56:09;;;;;;;0.85;0.50;;;8.20;96.70;;;;;;5121173;27;20442;-77
2020/12/03 00:58:37;;;;;;;0.82;0.50;;;8.30;96.70;;;;;;5120244;27;20042;-77
2020/12/03 01:01:05;;;;;;;1.15;0.43;;;8.20;96.70;;;;;;5126424;27;20153;-76
2020/12/03 01:03:32;;;;;;;0.55;0.40;;;8.20;96.70;;;;;;5124088;27;20027;-76
2020/12/03 01:05:59;;;;;;;0.70;0.50;;;8.30;96.70;;;;;;5139550;27;20046;-77
2020/12/03 01:08:26;;;;;;;0.38;0.30;;;8.30;96.70;;;;;;5118913;27;20046;-77
2020/12/03 01:10:53;;;;;;;1.63;0.30;;;8.30;96.70;;;;;;5139561;27;20125;-77
2020/12/03 01:13:22;;;;;;;0.60;0.30;;;8.30;96.70;;;;;;5125410;27;20399;-77
2020/12/03 01:15:51;;;;;;;0.85;0.28;;;8.20;96.70;;;;;;5104982;27;20039;-76
2020/12/03 01:18:18;;;;;;;0.40;0.30;;;8.20;96.70;;;;;;5144504;27;20514;-77
2020/12/03 01:20:46;;;;;;;0.50;0.30;;;8.30;96.70;;;;;;5105176;27;20051;-77
2020/12/03 01:23:13;;;;;;;0.25;0.20;;;8.30;96.70;;;;;;5139425;27;20484;-77
2020/12/03 01:25:40;;;;;;;2.08;0.35;;;8.20;96.70;;;;;;5123884;27;20042;-77
2020/12/03 01:28:08;;;;;;;1.75;0.45;;;8.20;96.70;;;;;;5124240;27;20042;-76
2020/12/03 01:30:35;;;;;;;0.20;0.20;;;8.20;96.70;;;;;;5118618;27;20053;-77
2020/12/03 01:33:03;;;;;;;0.43;0.20;;;8.20;96.70;;;;;;5119486;27;20038;-77
2020/12/03 01:35:30;;;;;;;0.77;0.10;;;8.20;96.70;;;;;;5106742;27;20488;-77
2020/12/03 01:37:58;;;;;;;0.30;0.20;;;8.10;96.70;;;;;;5142821;27;20127;-77
2020/12/03 01:40:26;;;;;;;0.10;0.10;;;8.10;96.70;;;;;;5124925;27;20054;-78
2020/12/03 01:42:54;;;;;;;0.30;0.20;;;8.20;96.70;;;;;;5124633;27;20060;-77
2020/12/03 01:45:45;;;;;;;0.30;0.20;;;8.20;96.70;;;;;;5142551;27;20088;-78
2020/12/03 01:48:23;;;;;;;0.40;0.20;;;8.20;96.70;;;;;;5138196;27;20045;-77
2020/12/03 01:50:51;;;;;;;0.55;0.30;;;8.20;96.70;;;;;;5143604;27;20135;-76
2020/12/03 01:53:19;;;;;;;0.40;0.22;;;8.20;96.70;;;;;;5143240;27;20041;-77
2020/12/03 01:55:48;;;;;;;0.32;0.20;;;8.20;96.70;;;;;;5124427;27;20842;-77
2020/12/03 01:58:25;;;;;;;0.50;0.30;;;8.20;96.70;;;;;;5125037;27;20047;-77
2020/12/03 02:00:52;;;;;;;0.47;0.20;;;8.20;96.70;;;;;;5122911;27;20143;-78
2020/12/03 02:03:20;;;;;;;0.75;0.22;;;8.20;96.70;;;;;;5107097;27;20515;-77
2020/12/03 02:05:47;;;;;;;0.50;0.20;;;8.20;96.70;;;;;;5125326;27;20572;-75
2020/12/03 02:08:14;;;;;;;0.47;0.20;;;8.30;96.70;;;;;;5125673;27;20559;-77
2020/12/03 02:10:42;;;;;;;0.40;0.10;;;8.20;96.70;;;;;;5141663;27;20042;-77
2020/12/03 02:13:10;;;;;;;0.20;0.10;;;8.10;96.70;;;;;;5139220;27;20123;-76
2020/12/03 02:15:37;;;;;;;0.65;0.30;;;8.10;96.70;;;;;;5122562;27;20039;-77
2020/12/03 02:18:05;;;;;;;0.75;0.15;;;8.10;96.70;;;;;;5139684;27;20419;-76
2020/12/03 02:20:34;;;;;;;0.38;0.17;;;8.00;96.70;;;;;;5125459;27;20042;-77
2020/12/03 02:23:10;;;;;;;0.68;0.20;;;8.10;96.70;;;;;;5137621;27;20038;-76
2020/12/03 02:25:37;;;;;;;0.38;0.20;;;8.10;96.70;;;;;;5115829;27;20500;-77
2020/12/03 02:28:05;;;;;;;0.30;0.20;;;8.10;96.70;;;;;;5138199;27;20389;-77
2020/12/03 02:30:33;;;;;;;0.60;0.28;;;8.10;96.70;;;;;;5124116;27;20401;-76
2020/12/03 02:33:00;;;;;;;0.50;0.25;;;8.10;96.70;;;;;;5138852;27;20034;-77
2020/12/03 02:35:28;;;;;;;0.50;0.30;;;8.10;96.70;;;;;;5123231;27;20170;-77
2020/12/03 02:37:56;;;;;;;0.80;0.30;;;8.00;96.70;;;;;;5120399;27;20083;-77
2020/12/03 02:40:23;;;;;;;0.65;0.20;;;8.00;96.70;;;;;;5123651;27;20109;-76
2020/12/03 02:42:52;;;;;;;0.93;0.30;;;8.00;96.70;;;;;;5123925;27;20706;-76
2020/12/03 02:45:19;;;;;;;0.22;0.10;;;8.00;96.70;;;;;;5144262;27;20655;-77
2020/12/03 02:47:47;;;;;;;0.25;0.20;;;8.00;96.70;;;;;;5135835;27;20038;-77
2020/12/03 02:50:14;;;;;;;0.52;0.20;;;7.90;96.70;;;;;;5142071;27;20047;-77
2020/12/03 02:52:41;;;;;;;0.75;0.30;;;7.80;96.70;;;;;;5105690;27;20039;-76
2020/12/03 02:55:09;;;;;;;0.25;0.15;;;7.70;96.70;;;;;;5123893;27;20146;-77
2020/12/03 02:57:37;;;;;;;0.30;0.20;;;7.70;96.70;;;;;;5119883;27;20041;-77
2020/12/03 03:00:04;;;;;;;0.40;0.20;;;7.60;96.70;;;;;;5138240;27;20039;-77
2020/12/03 03:02:31;;;;;;;0.28;0.10;;;7.60;96.70;;;;;;5121370;27;20441;-76
2020/12/03 03:04:59;;;;;;;0.68;0.20;;;7.60;96.70;;;;;;5122365;27;20035;-77
2020/12/03 03:07:26;;;;;;;0.25;0.10;;;7.60;96.70;;;;;;5122898;27;20563;-77
2020/12/03 03:09:54;;;;;;;0.70;0.30;;;7.60;96.70;;;;;;5123922;27;20082;-77
2020/12/03 03:12:23;;;;;;;0.50;0.20;;;7.70;96.70;;;;;;5119685;27;20143;-76
2020/12/03 03:14:53;;;;;;;0.30;0.10;;;7.70;96.70;;;;;;5138052;27;20325;-76
2020/12/03 03:17:20;;;;;;;0.43;0.13;;;7.80;96.70;;;;;;5120912;27;20099;-76
2020/12/03 03:19:47;;;;;;;0.85;0.30;;;7.80;96.70;;;;;;5139145;27;20062;-76
2020/12/03 03:22:14;;;;;;;0.10;0.10;;;7.80;96.70;;;;;;5109138;27;20472;-76
2020/12/03 03:24:42;;;;;;;0.50;0.30;;;7.70;96.70;;;;;;5139249;27;20047;-76
2020/12/03 03:27:09;;;;;;;0.88;0.10;;;7.70;96.70;;;;;;5103164;27;20038;-76
2020/12/03 03:29:37;;;;;;;1.15;0.10;;;7.70;96.70;;;;;;5122804;27;20133;-76
2020/12/03 03:32:04;;;;;;;0.73;0.47;;;7.60;96.70;;;;;;5117541;27;20496;-77
2020/12/03 03:34:32;;;;;;;0.28;0.10;;;7.50;96.70;;;;;;5115219;27;20031;-76
2020/12/03 03:36:59;;;;;;;0.20;0.20;;;7.70;96.70;;;;;;5119594;27;20031;-76
2020/12/03 03:39:26;;;;;;;0.13;0.10;;;7.70;96.70;;;;;;5117469;27;20512;-77
2020/12/03 03:41:56;;;;;;;0.25;0.10;;;7.70;96.70;;;;;;5118520;27;20424;-76
2020/12/03 03:44:23;;;;;;;0.52;0.30;;;7.70;96.70;;;;;;5117668;27;20035;-76
2020/12/03 03:46:52;;;;;;;0.20;0.20;;;7.70;96.70;;;;;;5117677;27;20051;-76
2020/12/03 03:49:19;;;;;;;1.40;0.20;;;7.80;96.70;;;;;;5100631;27;20046;-76
2020/12/03 03:51:47;;;;;;;0.28;0.10;;;7.70;96.70;;;;;;5117189;27;20073;-76
2020/12/03 03:54:14;;;;;;;0.25;0.10;;;7.80;96.70;;;;;;5120046;27;20067;-77
2020/12/03 03:56:41;;;;;;;0.65;0.20;;;7.90;96.70;;;;;;5102773;27;20042;-76
2020/12/03 03:59:09;;;;;;;0.10;0.10;;;7.80;96.70;;;;;;5117697;27;20631;-76
2020/12/03 04:01:36;;;;;;;0.20;0.10;;;7.90;96.70;;;;;;5116518;27;20032;-77
2020/12/03 04:04:04;;;;;;;0.22;0.10;;;7.90;96.70;;;;;;5119312;27;20035;-76
2020/12/03 04:06:31;;;;;;;0.17;0.13;;;7.80;96.70;;;;;;5117126;27;20488;-76
2020/12/03 04:08:59;;;;;;;0.03;0.03;;;7.80;96.70;;;;;;5120577;27;20051;-77
2020/12/03 04:11:26;;;;;;;0.20;0.10;;;7.80;96.70;;;;;;5114158;27;20043;-76
2020/12/03 04:13:53;;;;;;;0.28;0.10;;;7.90;96.70;;;;;;5116103;27;20050;-76
2020/12/03 04:16:20;;;;;;;0.13;0.10;;;7.80;96.70;;;;;;5118190;27;20059;-76
2020/12/03 04:18:48;;;;;;;0.50;0.10;;;7.80;96.70;;;;;;5119179;27;20122;-76
2020/12/03 04:21:16;;;;;;;0.35;0.17;;;7.80;96.70;;;;;;5117460;27;20040;-75
2020/12/03 04:23:44;;;;;;;0.30;0.10;;;7.70;96.70;;;;;;5115768;27;20574;-76
2020/12/03 04:26:12;;;;;;;0.45;0.20;;;7.60;96.70;;;;;;5115270;27;20043;-76
2020/12/03 04:28:39;;;;;;;0.30;0.13;;;7.60;96.70;;;;;;5109037;27;20172;-76
2020/12/03 04:31:07;;;;;;;0.20;0.10;;;7.70;96.70;;;;;;5113543;27;20039;-76
2020/12/03 04:33:35;;;;;;;0.28;0.10;;;7.80;96.70;;;;;;5115900;27;20516;-76
2020/12/03 04:36:04;;;;;;;0.45;0.30;;;7.80;96.70;;;;;;5105706;27;20035;-77
2020/12/03 04:38:32;;;;;;;0.55;0.13;;;7.80;96.70;;;;;;5120922;27;20046;-76
2020/12/03 04:41:01;;;;;;;0.45;0.28;;;7.80;96.70;;;;;;5116068;27;20482;-77
2020/12/03 04:43:32;;;;;;;0.47;0.22;;;7.80;96.70;;;;;;5113324;27;20047;-77
2020/12/03 04:46:05;;;;;;;0.20;0.10;;;7.80;96.70;;;;;;5113689;27;20112;-76
2020/12/03 04:48:44;;;;;;;0.30;0.13;;;7.80;96.70;;;;;;5102572;28;20041;-77
2020/12/03 04:51:27;;;;;;;1.42;0.20;;;7.80;96.70;;;;;;5106356;27;20063;-77
2020/12/03 04:54:06;;;;;;;0.28;0.10;;;7.80;96.70;;;;;;5111389;27;20049;-77
2020/12/03 04:56:46;;;;;;;0.43;0.20;;;7.90;96.70;;;;;;5117775;27;20108;-77
2020/12/03 04:59:27;;;;;;;0.47;0.20;;;7.90;96.70;;;;;;5113691;27;20043;-77
2020/12/03 05:02:09;;;;;;;1.25;0.13;;;7.90;96.70;;;;;;5114403;27;20040;-77
2020/12/03 05:04:46;;;;;;;0.10;0.10;;;7.90;96.70;;;;;;5116203;27;20046;-77
2020/12/03 05:07:13;;;;;;;0.38;0.17;;;8.00;96.70;;;;;;5115726;27;20142;-77
2020/12/03 05:09:50;;;;;;;0.20;0.10;;;7.90;96.70;;;;;;5099293;27;20047;-76
2020/12/03 05:12:22;;;;;;;0.10;0.10;;;7.90;96.70;;;;;;5113559;27;20031;-77
2020/12/03 05:14:52;;;;;;;0.22;0.10;;;7.90;96.70;;;;;;5099725;28;20058;-77
2020/12/03 05:17:30;;;;;;;0.30;0.20;;;7.90;96.70;;;;;;5114094;27;20052;-76
2020/12/03 05:20:16;;;;;;;0.30;0.20;;;7.90;96.70;;;;;;5115885;27;20046;-76
2020/12/03 05:22:55;;;;;;;0.40;0.20;;;7.90;96.70;;;;;;5100310;28;20436;-77
2020/12/03 05:25:25;;;;;;;1.33;0.20;;;7.90;96.70;;;;;;5119644;27;20039;-76
2020/12/03 05:27:56;;;;;;;0.05;0.05;;;7.80;96.70;;;;;;5113155;27;20043;-77
2020/12/03 05:30:24;;;;;;;0.40;0.10;;;7.80;96.70;;;;;;5116125;27;20050;-77
2020/12/03 05:32:52;;;;;;;0.10;0.10;;;7.80;96.70;;;;;;5116507;27;20039;-77
2020/12/03 05:35:20;;;;;;;0.40;0.13;;;7.80;96.70;;;;;;5118131;27;20061;-77
2020/12/03 05:37:47;;;;;;;0.22;0.10;;;7.80;96.70;;;;;;5113805;27;20044;-76
2020/12/03 05:40:22;;;;;;;0.20;0.10;;;7.80;96.70;;;;;;5114936;27;20411;-77
2020/12/03 05:42:54;;;;;;;0.32;0.10;;;7.80;96.70;;;;;;5115525;27;20042;-77
2020/12/03 05:45:27;;;;;;;0.70;0.20;;;7.80;96.70;;;;;;5116074;27;20096;-77
2020/12/03 05:47:57;;;;;;;0.40;0.20;;;7.80;96.70;;;;;;5121283;27;20127;-77
2020/12/03 05:50:35;;;;;;;0.30;0.10;;;7.80;96.70;;;;;;5119376;27;20047;-77
2020/12/03 05:53:05;;;;;;;0.35;0.10;;;7.80;96.70;;;;;;5121985;27;20107;-78
2020/12/03 05:55:33;;;;;;;0.30;0.20;;;7.80;96.70;;;;;;5121312;27;20109;-77
2020/12/03 05:58:27;;;;;;;0.30;0.20;;;7.80;96.70;;;;;;5121205;27;20039;-76
2020/12/03 06:01:06;;;;;;;0.40;0.28;;;7.80;96.70;;;;;;5117125;27;20066;-77
2020/12/03 06:03:48;;;;;;;0.63;0.30;;;7.80;96.70;;;;;;5119249;27;20131;-77
2020/12/03 06:06:44;;;;;;;0.77;0.40;;;7.80;96.70;;;;;;5107733;27;20044;-77
2020/12/03 06:09:26;;;;;;;1.15;0.70;;;7.80;96.70;;;;;;5121699;27;20042;-77
2020/12/03 06:12:04;;;;;;;0.85;0.40;;;7.80;96.70;;;;;;5118063;27;20045;-77
2020/12/03 06:14:49;;;;;;;0.93;0.50;;;7.80;96.70;;;;;;5104606;27;20050;-76
2020/12/03 06:17:34;;;;;;;0.65;0.40;;;7.80;96.70;;;;;;5102713;27;20047;-77
2020/12/03 06:20:15;;;;;;;0.90;0.40;;;7.80;96.70;;;;;;5117756;27;20420;-76
2020/12/03 06:22:55;;;;;;;0.43;0.40;;;7.70;96.70;;;;;;5122390;27;20099;-76
2020/12/03 06:25:31;;;;;;;0.73;0.40;;;7.70;96.70;;;;;;5119988;27;20124;-77
2020/12/03 06:28:06;;;;;;;;;;;7.80;96.70;;;;;;5120592;27;20356;-77
2020/12/03 06:30:43;;;;;;;1.67;0.50;;;7.80;96.70;;;;;;5120128;27;20250;-77
2020/12/03 06:33:30;;;;;;;2.38;1.00;;;7.80;96.70;;;;;;5119222;27;20542;-76
2020/12/03 06:36:01;;;;;;;1.08;0.60;;;7.80;96.70;;;;;;5117327;27;20039;-77
2020/12/03 06:38:36;;;;;;;1.02;0.60;;;7.80;96.70;;;;;;5117880;27;20047;-77
2020/12/03 06:41:31;;;;;;;1.25;0.38;;;7.80;96.70;;;;;;5115764;27;20039;-76
2020/12/03 06:44:12;;;;;;;1.38;0.40;;;7.90;96.70;;;;;;5115376;27;20139;-77
2020/12/03 06:47:14;;;;;;;1.48;0.70;;;7.90;96.70;;;;;;5113582;27;20589;-78
2020/12/03 06:49:56;;;;;;;1.35;0.95;;;7.80;96.70;;;;;;5121531;27;20036;-78
2020/12/03 06:52:38;;;;;;;0.77;0.50;;;7.80;96.70;;;;;;5120865;27;20133;-78
2020/12/03 06:55:30;;;;;;;0.60;0.40;;;7.90;96.70;;;;;;5113161;27;20580;-79
2020/12/03 06:58:23;;;;;;;1.42;0.43;;;7.90;96.70;;;;;;5119248;27;20050;-79
2020/12/03 07:01:13;;;;;;;0.88;0.43;;;7.90;96.70;;;;;;5120381;27;20258;-79
2020/12/03 07:04:10;;;;;;;1.02;0.60;;;8.00;96.70;;;;;;5119492;27;20524;-78
2020/12/03 07:07:01;;;;;;;0.53;0.30;;;8.00;96.70;;;;;;5103899;27;20146;-78
2020/12/03 07:09:58;;;;;;;0.70;0.40;;;8.00;96.70;;;;;;5117347;27;20035;-79
2020/12/03 07:12:47;;;;;;;0.63;0.40;;;8.00;96.70;;;;;;5127902;27;20051;-79
2020/12/03 07:15:41;;;;;;;1.25;0.40;;;8.10;96.70;;;;;;5124886;27;20161;-82
2020/12/03 07:21:42;;;;;;;1.15;0.40;;;8.10;96.70;;;;;;5004417;28;20046;-79
2020/12/03 07:24:22;;;;;;;0.98;0.57;;;8.10;96.70;;;;;;4997276;28;20049;-79
2020/12/03 07:27:18;;;;;;;1.27;0.75;;;8.10;96.70;;;;;;4985613;28;20041;-80
2020/12/03 07:29:57;;;;;;;1.17;0.60;;;8.10;96.70;;;;;;5003003;28;20038;-78
2020/12/03 07:32:54;;;;;;;1.00;0.60;;;8.10;96.70;;;;;;5004839;28;20042;-80
2020/12/03 07:35:42;;;;;;;1.15;0.52;;;8.10;96.70;;;;;;5007643;28;20064;-79
2020/12/03 07:38:29;;;;;;;0.93;0.55;;;8.10;96.70;;;;;;5005612;28;20095;-81
2020/12/03 07:41:14;;;;;;;0.80;0.40;;;8.20;96.70;;;;;;5006961;28;20057;-79
2020/12/03 07:44:24;;;;;;;1.08;0.47;;;8.20;96.70;;;;;;5005467;28;20048;-81
2020/12/03 07:47:17;;;;;;;1.30;0.70;;;8.20;96.70;;;;;;4986748;28;20046;-80
2020/12/03 07:49:47;;;;;;;1.52;0.93;;;8.10;96.70;;;;;;5003853;28;20311;-78
2020/12/03 07:52:32;;;;;;;2.13;0.80;;;8.20;96.70;;;;;;4990344;28;20050;-79
2020/12/03 07:55:39;;;;;;;1.70;0.85;;;8.20;96.70;;;;;;4990707;28;20053;-80
2020/12/03 07:58:44;;;;;;;1.42;0.70;;;8.30;96.70;;;;;;5008296;28;20099;-79
2020/12/03 08:01:40;;;;;;;2.03;0.90;;;8.40;96.70;;;;;;5000179;28;20060;-80
2020/12/03 08:04:32;;;;;;;4.82;2.85;;;8.40;96.70;;;;;;4995326;28;20045;-79
2020/12/03 08:07:24;;;;;;;4.40;2.72;;;8.50;96.70;;;;;;4990580;28;20050;-80
2020/12/03 08:10:04;;;;;;;2.67;1.40;;;8.50;96.70;;;;;;4989396;28;20056;-79
2020/12/03 08:13:16;;;;;;;3.50;1.15;;;8.50;96.70;;;;;;4998107;28;20317;-80
2020/12/03 08:16:01;;;;;;;2.70;1.00;;;8.50;96.70;;;;;;4990250;28;20387;-78
2020/12/03 08:18:57;;;;;;;1.73;1.00;;;8.50;96.70;;;;;;4971760;28;20233;-77
2020/12/03 08:22:17;;;;;;;1.42;0.77;;;8.50;96.70;;;;;;4979980;28;20050;-77
2020/12/03 08:25:06;;;;;;;1.65;0.85;;;8.60;96.70;;;;;;4825113;29;20060;-78
2020/12/03 08:27:32;;;;;;;1.38;0.90;;;8.60;96.70;;;;;;4743582;29;20058;-77
2020/12/03 08:29:57;;;;;;;0.80;0.68;;;8.60;96.70;;;;;;4743987;29;20051;-77
2020/12/03 08:32:24;;;;;;;1.60;0.90;;;8.70;96.70;;;;;;4772737;29;20560;-77
2020/12/03 08:34:49;;;;;;;3.38;0.98;;;8.80;96.70;;;;;;4754182;30;20130;-79
2020/12/03 08:37:16;;;;;;;1.33;0.75;;;8.80;96.70;;;;;;4738560;29;20050;-80
2020/12/03 08:39:42;;;;;;;1.17;0.68;;;8.90;96.70;;;;;;4755832;30;20060;-79
2020/12/03 08:42:08;;;;;;;0.95;0.60;;;9.00;96.70;;;;;;4748055;29;20035;-81
2020/12/03 08:44:35;;;;;;;1.33;0.70;;;9.00;96.70;;;;;;4787070;29;20475;-77
2020/12/03 08:47:01;;;;;;;2.55;0.98;;;9.10;96.70;;;;;;4730654;29;20595;-80
2020/12/03 08:49:27;;;;;;;1.60;0.90;;;9.10;96.70;;;;;;4712102;30;20062;-78
2020/12/03 08:51:58;;;;;;;;;;;9.20;96.70;;;;;;4728006;29;20181;-78
2020/12/03 08:54:54;;;;;;;1.60;0.93;;;9.30;96.70;;;;;;4753581;29;19931;-78
2020/12/03 08:57:44;;;;;;;1.80;1.10;;;9.40;96.70;;;;;;4791754;29;20050;-77
2020/12/03 09:01:05;;;;;;;3.70;1.30;;;9.60;96.70;;;;;;4741072;29;20315;-77
2020/12/03 09:07:38;;;;;;;2.65;1.02;;;9.90;96.70;;;;;;5123466;27;20398;-78
2020/12/03 09:10:35;;;;;;;1.40;1.00;;;10.00;96.70;;;;;;4981224;28;20128;-78
2020/12/03 09:13:32;;;;;;;2.67;0.88;;;10.00;96.70;;;;;;4919189;28;20043;-78
2020/12/03 09:16:29;;;;;;;1.60;0.80;;;10.10;96.70;;;;;;4861668;29;20051;-78
2020/12/03 09:19:18;;;;;;;1.02;0.70;;;10.20;96.70;;;;;;4805369;29;20046;-78
2020/12/03 09:22:27;;;;;;;2.47;1.25;;;10.30;96.70;;;;;;4749239;30;20419;-78
2020/12/03 09:24:54;;;;;;;1.27;0.93;;;10.40;96.70;;;;;;4682040;30;20066;-78
2020/12/03 09:27:19;;;;;;;2.38;0.75;;;10.30;96.70;;;;;;4668337;30;20045;-78
2020/12/03 09:29:48;;;;;;;2.47;1.25;;;10.40;96.70;;;;;;4624648;30;20269;-78
2020/12/03 09:32:14;;;;;;;1.83;1.20;;;10.50;96.70;;;;;;4653166;30;20057;-79
2020/12/03 09:34:40;;;;;;;1.75;1.02;;;10.70;96.70;;;;;;4651175;30;20042;-79
2020/12/03 09:37:07;;;;;;;0.85;0.68;;;10.90;96.70;;;;;;4681307;30;20052;-80
2020/12/03 09:39:33;;;;;;;1.20;0.80;;;10.90;96.70;;;;;;4638693;30;20046;-78
2020/12/03 09:41:59;;;;;;;1.42;0.80;;;10.90;96.70;;;;;;4715502;30;20564;-78
2020/12/03 09:44:25;;;;;;;1.52;0.80;;;11.00;96.70;;;;;;4684719;30;20098;-78
2020/12/03 09:46:51;;;;;;;1.20;0.70;;;11.20;96.70;;;;;;4710874;30;20063;-78
2020/12/03 09:49:17;;;;;;;2.67;0.80;;;11.30;96.70;;;;;;4778565;29;20031;-78
2020/12/03 09:52:08;;;;;;;1.13;0.70;;;11.40;96.70;;;;;;4820623;29;20060;-78
2020/12/03 09:55:26;;;;;;;1.33;0.90;;;11.50;96.70;;;;;;4863165;29;20543;-78
2020/12/03 09:58:39;;;;;;;1.10;1.00;;;11.70;96.70;;;;;;4854842;29;20102;-79
2020/12/03 10:01:59;;;;;;;2.55;0.80;;;11.80;96.70;;;;;;4852229;29;20056;-79
2020/12/03 10:04:58;;;;;;;2.80;1.00;;;11.90;96.70;;;;;;4827614;29;20057;-78
2020/12/03 10:08:19;;;;;;;2.47;1.25;;;12.10;96.30;;;;;;4841077;29;20509;-78
2020/12/03 10:11:34;;;;;;;3.45;1.10;;;12.20;95.70;;;;;;4837708;29;20057;-80
2020/12/03 10:14:37;;;;;;;2.85;1.00;;;12.20;95.20;;;;;;4808448;29;20178;-79
2020/12/03 10:17:18;;;;;;;1.80;0.77;;;12.30;95.50;;;;;;4777705;29;20081;-82
2020/12/03 10:23:54;;;;;;;1.20;0.70;;;12.60;93.70;;;;;;5123543;27;20411;-80
2020/12/03 10:26:51;;;;;;;1.23;0.82;;;12.70;93.40;;;;;;4955364;28;20049;-80
2020/12/03 10:29:54;;;;;;;1.30;0.75;;;12.70;93.20;;;;;;4880123;29;20881;-82
2020/12/03 10:32:52;;;;;;;2.95;1.58;;;12.70;93.40;;;;;;4838833;29;20065;-80
2020/12/03 10:35:50;;;;;;;1.35;0.70;;;12.80;92.50;;;;;;4812850;29;20082;-80
2020/12/03 10:38:46;;;;;;;1.73;1.20;;;12.80;92.00;;;;;;4729039;30;20099;-79
2020/12/03 10:41:43;;;;;;;0.80;0.60;;;12.80;92.40;;;;;;4677835;30;20312;-79
2020/12/03 10:44:41;;;;;;;2.17;0.60;;;12.80;92.40;;;;;;4635426;30;20808;-79
2020/12/03 10:47:38;;;;;;;2.35;0.80;;;12.90;92.30;;;;;;4617954;30;20055;-80
2020/12/03 10:50:39;;;;;;;1.25;0.52;;;12.80;91.90;;;;;;4614767;30;20514;-80
2020/12/03 10:53:48;;;;;;;1.10;0.60;;;12.70;92.50;;;;;;5084715;23;20058;-77
2020/12/03 10:56:59;;;;;;;1.58;0.60;;;12.90;93.00;;;;;;4918796;28;20611;-80
2020/12/03 11:00:11;;;;;;;3.63;0.75;;;12.80;92.00;;;;;;4774689;29;20132;-80
2020/12/03 11:03:07;;;;;;;1.77;0.60;;;12.60;92.60;;;;;;4707299;30;20050;-88
2020/12/03 11:05:33;;;;;;;0.88;0.47;;;12.70;93.80;;;;;;4682004;30;20074;-87
2020/12/03 11:07:59;;;;;;;1.13;0.65;;;12.70;93.20;;;;;;4651630;30;20057;-80
2020/12/03 11:10:25;;;;;;;3.10;0.70;;;12.90;92.70;;;;;;4671377;30;20057;-82
2020/12/03 11:13:07;;;;;;;3.65;0.77;;;13.00;92.60;;;;;;4679027;30;20073;-85
2020/12/03 11:15:33;;;;;;;0.60;0.52;;;13.10;92.40;;;;;;4633327;30;20063;-90
2020/12/03 11:18:01;;;;;;;1.50;0.57;;;13.10;92.50;;;;;;4602600;30;20063;-84
2020/12/03 11:21:01;;;;;;;0.85;0.55;;;13.10;92.40;;;;;;4602673;30;20554;-85
2020/12/03 11:23:51;;;;;;;1.25;0.70;;;13.10;92.40;;;;;;4631794;30;20185;-83
2020/12/03 11:26:26;;;;;;;1.92;0.70;;;13.10;92.40;;;;;;4629065;30;20340;-83
2020/12/03 11:29:10;;;;;;;1.52;0.40;;;13.10;92.60;;;;;;4604846;30;20116;-83
2020/12/03 11:31:41;;;;;;;2.08;0.60;;;13.20;92.20;;;;;;4593293;30;20050;-83
2020/12/03 11:34:35;;;;;;;1.33;0.40;;;13.20;92.60;;;;;;4565940;31;20586;-83
2020/12/03 11:37:04;;;;;;;1.67;0.50;;;13.30;92.50;;;;;;4596544;30;20646;-83
2020/12/03 11:40:17;;;;;;;0.77;0.47;;;13.50;91.90;;;;;;4660628;30;20087;-81
2020/12/03 11:44:00;;;;;;;0.75;0.50;;;13.40;92.80;;;;;;4665721;30;20674;-80
2020/12/03 11:50:14;;;;;;;0.80;0.60;;;13.10;92.90;;;;;;4618364;30;20062;-82
2020/12/03 11:57:00;;;;;;;1.33;1.02;;;12.90;93.50;;;;;;5185639;27;20139;-81
2020/12/03 12:00:24;;;;;;;1.40;1.00;;;13.00;93.80;;;;;;5003120;28;20042;-81
2020/12/03 12:13:10;;;;;;;1.55;0.75;;;12.90;94.50;;;;;;4767708;30;20084;-82
2020/12/03 12:16:53;;;;;;;1.67;0.88;;;12.80;94.40;;;;;;5178877;27;20144;-82
2020/12/03 12:23:55;;;;;;;2.03;0.73;;;12.80;94.60;;;;;;4844613;29;20084;-83
2020/12/03 12:30:49;;;;;;;2.00;1.08;;;12.80;95.00;;;;;;5157341;27;20142;-84
2020/12/03 12:34:21;;;;;;;2.10;0.88;;;12.80;94.70;;;;;;4887973;29;20059;-82
2020/12/03 12:37:59;;;;;;;1.77;1.15;;;12.80;95.00;;;;;;4789147;29;20065;-83
2020/12/03 12:41:02;;;;;;;4.57;0.73;;;12.70;94.70;;;;;;4670983;30;20061;-82
2020/12/03 12:44:14;;;;;;;1.23;1.10;;;12.60;94.80;;;;;;4661111;30;20061;-81
2020/12/03 12:47:13;;;;;;;1.88;0.90;;;12.60;95.20;;;;;;4667576;30;20044;-81
2020/12/03 12:49:54;;;;;;;2.42;0.75;;;12.60;95.10;;;;;;4669103;30;20133;-82
2020/12/03 12:52:59;;;;;;;1.50;0.88;;;12.50;95.40;;;;;;4671007;30;20068;-82
2020/12/03 12:56:05;;;;;;;1.48;1.17;;;12.50;95.50;;;;;;4672170;30;20131;-82
2020/12/03 12:59:14;;;;;;;1.73;1.00;;;12.40;95.70;;;;;;4686167;30;20191;-82
2020/12/03 13:01:58;;;;;;;1.88;1.27;;;12.40;96.20;;;;;;4654340;30;20057;-82
2020/12/03 13:04:56;;;;;;;1.63;1.17;;;12.50;95.80;;;;;;4695401;30;20576;-82
2020/12/03 13:22:09;;;;;;;2.67;1.80;;;12.50;96.30;;;;;;5190422;27;20388;-81
2020/12/03 13:25:06;;;;;;;7.68;4.15;;;12.40;95.70;;;;;;5107749;28;20050;-81
2020/12/03 13:28:03;;;;;;;4.17;3.23;;;12.30;96.50;;;;;;4981211;28;20048;-81
2020/12/03 13:30:59;;;;;;;3.00;1.90;;;12.30;96.20;;;;;;4936225;28;20051;-81
2020/12/03 13:33:59;;;;;;;4.70;2.10;;;12.20;96.30;;;;;;4912896;29;20063;-80
2020/12/03 13:36:59;;;;;;;2.45;1.42;;;12.30;96.30;;;;;;4863255;29;20380;-80
2020/12/03 13:40:06;;;;;;;2.08;1.70;;;12.40;96.50;;;;;;4824364;29;20645;-80
2020/12/03 13:43:05;;;;;;;4.32;1.33;;;12.40;96.50;;;;;;4793041;29;20058;-81
2020/12/03 13:45:55;;;;;;;2.55;0.90;;;12.30;96.10;;;;;;4734803;30;20049;-80
2020/12/03 13:48:21;;;;;;;1.55;1.00;;;12.30;96.20;;;;;;4675763;30;20074;-80
2020/12/03 13:50:47;;;;;;;2.42;0.93;;;12.30;96.20;;;;;;4671814;30;20173;-80
2020/12/03 13:53:13;;;;;;;1.50;1.15;;;12.30;96.30;;;;;;4678493;30;20564;-81
2020/12/03 13:55:42;;;;;;;1.98;0.82;;;12.30;96.50;;;;;;4655941;30;20534;-80
2020/12/03 13:58:08;;;;;;;1.63;1.25;;;12.20;95.90;;;;;;4668289;30;20034;-81
2020/12/03 14:00:37;;;;;;;1.85;1.10;;;12.20;96.70;;;;;;4697199;30;20061;-80
2020/12/03 14:03:09;;;;;;;1.80;1.20;;;12.20;96.70;;;;;;4729700;30;20048;-80
2020/12/03 14:05:34;;;;;;;3.33;1.20;;;12.20;96.50;;;;;;4757139;29;20550;-81
2020/12/03 14:08:01;;;;;;;4.85;1.60;;;12.30;96.70;;;;;;4768304;29;20195;-81
2020/12/03 14:10:28;;;;;;;3.00;1.83;;;12.30;96.20;;;;;;4811004;29;20102;-81
2020/12/03 14:12:53;;;;;;;2.40;1.10;;;12.20;96.60;;;;;;4862713;29;20034;-81
2020/12/03 14:15:50;;;;;;;2.22;1.33;;;12.20;96.70;;;;;;4885880;28;20056;-81
2020/12/03 14:18:47;;;;;;;1.50;0.85;;;12.20;96.70;;;;;;4973954;28;20048;-80
2020/12/03 14:21:43;;;;;;;0.90;0.60;;;12.10;96.50;;;;;;4931555;28;20145;-81
2020/12/03 14:24:34;;;;;;;1.97;1.00;;;12.10;96.70;;;;;;4903291;29;20055;-81
2020/12/03 14:27:45;;;;;;;1.70;1.13;;;12.00;96.70;;;;;;4841348;29;20065;-81
2020/12/03 14:30:12;;;;;;;2.97;1.10;;;11.90;96.70;;;;;;4743207;30;20529;-81
2020/12/03 14:32:37;;;;;;;2.70;1.67;;;11.80;96.70;;;;;;4708277;30;20043;-81
2020/12/03 14:35:03;;;;;;;5.18;1.98;;;11.80;96.70;;;;;;4728012;30;20094;-81
2020/12/03 14:37:36;;;;;;;3.17;2.33;;;11.70;96.70;;;;;;4739953;30;20044;-81
2020/12/03 14:40:02;;;;;;;2.38;1.60;;;11.70;96.70;;;;;;4712920;30;20050;-80
2020/12/03 14:42:31;;;;;;;2.58;1.70;;;11.70;96.70;;;;;;4740805;30;20047;-81
2020/12/03 14:45:00;;;;;;;2.38;1.50;;;11.60;96.70;;;;;;4743832;30;20040;-80
2020/12/03 14:47:29;;;;;;;4.32;1.58;;;11.60;96.70;;;;;;4711577;30;20471;-81
2020/12/03 14:49:59;;;;;;;2.85;1.90;;;11.50;96.70;;;;;;4756435;29;20044;-81